Time;durP1;ratioP1;P1;durP2;ratioP2;P2;SDS_P1;SDS_P2;PMS_P1;PMS_P2;Temp;Humidity;BMP_temperature;BMP_pressure;BME280_temperature;BME280_humidity;BME280_pressure;Samples;Min_cycle;Max_cycle;Signal;HPM_P1;HPM_P2
2023/12/31 00:01:55;;;;;;;7.43;4.20;;;8.60;99.90;;;;;;5074471;28;20380;-78
2023/12/31 00:04:22;;;;;;;6.85;4.07;;;8.70;99.90;;;;;;5074004;28;20059;-78
2023/12/31 00:06:48;;;;;;;7.07;3.40;;;8.60;99.90;;;;;;5074321;28;20063;-78
2023/12/31 00:09:13;;;;;;;5.68;3.20;;;8.60;99.90;;;;;;5074216;28;20044;-78
2023/12/31 00:11:39;;;;;;;5.80;2.97;;;8.60;99.90;;;;;;5073686;28;20052;-78
2023/12/31 00:14:05;;;;;;;7.22;3.45;;;8.60;99.90;;;;;;5074137;28;20044;-78
2023/12/31 00:16:32;;;;;;;5.50;2.78;;;8.70;99.90;;;;;;5057422;28;20048;-78
2023/12/31 00:18:58;;;;;;;6.38;2.72;;;8.60;99.90;;;;;;5074448;28;20078;-78
2023/12/31 00:21:23;;;;;;;4.90;2.15;;;8.70;99.90;;;;;;5074921;28;20052;-78
2023/12/31 00:23:49;;;;;;;6.55;2.70;;;8.70;99.90;;;;;;5075235;28;20044;-78
2023/12/31 00:26:15;;;;;;;5.68;2.70;;;8.80;99.90;;;;;;5074125;28;20052;-78
2023/12/31 00:28:40;;;;;;;5.95;2.63;;;8.80;99.90;;;;;;5057108;28;20144;-78
2023/12/31 00:31:06;;;;;;;6.50;2.70;;;8.80;99.90;;;;;;5073963;28;20044;-78
2023/12/31 00:33:32;;;;;;;4.35;2.42;;;8.80;99.90;;;;;;5057102;28;20131;-78
2023/12/31 00:35:58;;;;;;;4.10;2.40;;;8.80;99.90;;;;;;5057128;28;20479;-78
2023/12/31 00:38:24;;;;;;;6.13;2.83;;;8.80;99.90;;;;;;5057319;28;20383;-78
2023/12/31 00:40:50;;;;;;;6.15;2.90;;;8.80;99.90;;;;;;5040112;28;20059;-78
2023/12/31 00:43:15;;;;;;;3.40;2.05;;;8.80;99.90;;;;;;5056843;28;20043;-78
2023/12/31 00:45:41;;;;;;;5.30;2.83;;;8.90;99.90;;;;;;5072077;28;20446;-78
2023/12/31 00:48:07;;;;;;;5.03;2.83;;;8.90;99.90;;;;;;5074845;28;20079;-77
2023/12/31 00:50:32;;;;;;;4.63;2.40;;;8.90;99.90;;;;;;5073286;28;20052;-78
2023/12/31 00:52:58;;;;;;;4.10;2.58;;;8.90;99.90;;;;;;5073603;28;20052;-77
2023/12/31 00:55:24;;;;;;;7.53;3.38;;;8.90;99.90;;;;;;5073690;28;20365;-78
2023/12/31 00:57:49;;;;;;;4.80;2.50;;;8.90;99.90;;;;;;5074361;28;20054;-78
2023/12/31 01:00:15;;;;;;;3.67;2.10;;;8.80;99.90;;;;;;5073683;28;20124;-78
2023/12/31 01:02:41;;;;;;;5.07;2.25;;;8.80;99.90;;;;;;5074053;28;20127;-78
2023/12/31 01:05:07;;;;;;;4.43;2.30;;;8.80;99.90;;;;;;5056622;28;20040;-78
2023/12/31 01:07:33;;;;;;;4.38;2.35;;;8.80;99.90;;;;;;5073734;28;20048;-78
2023/12/31 01:09:58;;;;;;;3.97;2.53;;;8.80;99.90;;;;;;5073615;28;20055;-78
2023/12/31 01:12:24;;;;;;;5.05;2.30;;;8.70;99.90;;;;;;5073233;28;20056;-78
2023/12/31 01:14:50;;;;;;;4.18;2.33;;;8.70;99.90;;;;;;5055977;28;20060;-78
2023/12/31 01:17:16;;;;;;;5.03;2.03;;;8.70;99.90;;;;;;5073087;28;20060;-78
2023/12/31 01:19:41;;;;;;;4.18;2.13;;;8.70;99.90;;;;;;5073472;28;20037;-78
2023/12/31 01:22:07;;;;;;;4.10;2.20;;;8.60;99.90;;;;;;5074123;28;20040;-78
2023/12/31 01:24:33;;;;;;;4.32;2.20;;;8.70;99.90;;;;;;5056144;28;20059;-78
2023/12/31 01:26:58;;;;;;;3.45;2.45;;;8.70;99.90;;;;;;5073010;28;20052;-78
2023/12/31 01:29:24;;;;;;;6.47;2.60;;;8.80;99.90;;;;;;5072645;28;20056;-78
2023/12/31 01:31:50;;;;;;;3.95;2.60;;;8.70;99.90;;;;;;5072657;28;20048;-77
2023/12/31 01:34:16;;;;;;;6.50;2.58;;;8.70;99.90;;;;;;5072905;28;20057;-78
2023/12/31 01:36:41;;;;;;;5.88;2.72;;;8.70;99.90;;;;;;5073158;28;20048;-78
2023/12/31 01:39:07;;;;;;;3.42;2.15;;;8.70;99.90;;;;;;5073861;28;20052;-78
2023/12/31 01:41:33;;;;;;;3.53;2.10;;;8.70;99.90;;;;;;5072553;28;20084;-78
2023/12/31 01:44:03;;;;;;;4.03;2.00;;;8.70;99.90;;;;;;5072431;28;20053;-78
2023/12/31 01:46:31;;;;;;;4.68;2.10;;;8.70;99.90;;;;;;5073795;28;20127;-78
2023/12/31 01:48:58;;;;;;;4.50;2.65;;;8.60;99.90;;;;;;5071821;28;20048;-78
2023/12/31 01:51:25;;;;;;;3.80;2.25;;;8.60;99.90;;;;;;5056057;28;20048;-78
2023/12/31 01:53:51;;;;;;;4.63;2.38;;;8.60;99.90;;;;;;5071667;28;20549;-78
2023/12/31 01:56:19;;;;;;;6.82;2.40;;;8.50;99.90;;;;;;5072428;28;20040;-77
2023/12/31 01:58:48;;;;;;;4.78;2.63;;;8.50;99.90;;;;;;5073092;28;20084;-78
2023/12/31 02:01:14;;;;;;;5.40;2.28;;;8.40;99.90;;;;;;5073383;28;20040;-78
2023/12/31 02:03:40;;;;;;;3.53;2.15;;;8.40;99.90;;;;;;5072939;28;20360;-78
2023/12/31 02:06:06;;;;;;;3.10;1.90;;;8.50;99.90;;;;;;5055422;28;20135;-78
2023/12/31 02:08:32;;;;;;;3.58;1.88;;;8.40;99.90;;;;;;5072260;28;20390;-77
2023/12/31 02:10:57;;;;;;;4.78;2.17;;;8.50;99.90;;;;;;5071698;28;20103;-78
2023/12/31 02:13:23;;;;;;;3.10;1.90;;;8.50;99.90;;;;;;5072200;28;20047;-77
2023/12/31 02:15:52;;;;;;;2.58;1.70;;;8.50;99.90;;;;;;5072531;28;20048;-77
2023/12/31 02:18:17;;;;;;;4.13;1.80;;;8.50;99.90;;;;;;5072137;28;20048;-77
2023/12/31 02:20:44;;;;;;;3.58;1.90;;;8.50;99.90;;;;;;5071798;28;20045;-78
2023/12/31 02:23:10;;;;;;;2.22;1.63;;;8.50;99.90;;;;;;5071800;28;20056;-78
2023/12/31 02:25:41;;;;;;;3.85;1.70;;;8.50;99.90;;;;;;5071879;28;20068;-78
2023/12/31 02:28:14;;;;;;;3.05;1.80;;;8.60;99.90;;;;;;5071685;28;20056;-78
2023/12/31 02:30:39;;;;;;;2.47;1.60;;;8.60;99.90;;;;;;5071724;28;20054;-77
2023/12/31 02:33:05;;;;;;;3.38;2.08;;;8.60;99.90;;;;;;5071516;28;20055;-78
2023/12/31 02:35:32;;;;;;;2.47;1.52;;;8.60;99.90;;;;;;5071662;28;20052;-78
2023/12/31 02:37:58;;;;;;;1.88;1.35;;;8.60;99.90;;;;;;5072284;28;20044;-78
2023/12/31 02:40:23;;;;;;;4.13;1.92;;;8.60;99.90;;;;;;5071656;28;20113;-77
2023/12/31 02:42:50;;;;;;;3.22;1.90;;;8.60;99.90;;;;;;5054318;28;20051;-78
2023/12/31 02:45:16;;;;;;;3.92;1.75;;;8.70;99.90;;;;;;5038303;28;20091;-77
2023/12/31 02:47:41;;;;;;;2.40;1.58;;;8.60;99.90;;;;;;5072569;28;20080;-77
2023/12/31 02:50:08;;;;;;;2.63;1.67;;;8.60;99.90;;;;;;5070591;28;20186;-77
2023/12/31 02:52:33;;;;;;;3.85;1.35;;;8.60;99.90;;;;;;5054810;28;20064;-77
2023/12/31 02:54:59;;;;;;;3.40;2.00;;;8.60;99.90;;;;;;5054356;28;20045;-77
2023/12/31 02:57:24;;;;;;;4.68;2.17;;;8.70;99.90;;;;;;5054809;28;20105;-77
2023/12/31 02:59:50;;;;;;;3.50;1.60;;;8.60;99.90;;;;;;5072091;28;20044;-77
2023/12/31 03:02:16;;;;;;;3.60;1.83;;;8.60;99.90;;;;;;5072302;28;20052;-77
2023/12/31 03:04:42;;;;;;;3.05;1.70;;;8.60;99.90;;;;;;5070956;28;20127;-77
2023/12/31 03:07:07;;;;;;;3.55;1.77;;;8.60;99.90;;;;;;5053563;28;20041;-78
2023/12/31 03:09:33;;;;;;;3.58;1.73;;;8.60;99.90;;;;;;5071258;28;20057;-77
2023/12/31 03:11:59;;;;;;;3.42;1.52;;;8.60;99.90;;;;;;5072027;28;20068;-78
2023/12/31 03:14:24;;;;;;;3.00;1.60;;;8.70;99.90;;;;;;5072018;28;20476;-77
2023/12/31 03:16:50;;;;;;;2.92;1.67;;;8.60;99.90;;;;;;5070518;28;20049;-78
2023/12/31 03:19:18;;;;;;;4.28;1.80;;;8.60;99.90;;;;;;5071039;28;20430;-78
2023/12/31 03:21:43;;;;;;;3.33;1.90;;;8.70;99.90;;;;;;5070902;28;20075;-77
2023/12/31 03:24:10;;;;;;;4.70;2.00;;;8.60;99.90;;;;;;5070588;28;20044;-77
2023/12/31 03:26:36;;;;;;;3.80;1.95;;;8.70;99.90;;;;;;5037620;28;20052;-78
2023/12/31 03:29:01;;;;;;;4.13;2.55;;;8.60;99.90;;;;;;5070364;28;20078;-78
2023/12/31 03:31:27;;;;;;;4.57;2.10;;;8.50;99.90;;;;;;5071007;28;20511;-77
2023/12/31 03:33:53;;;;;;;5.82;2.50;;;8.40;99.90;;;;;;5070521;28;20442;-78
2023/12/31 03:36:21;;;;;;;4.75;2.45;;;8.30;99.90;;;;;;5071202;28;20049;-77
2023/12/31 03:38:48;;;;;;;3.83;2.08;;;8.20;99.90;;;;;;5070919;28;20479;-77
2023/12/31 03:41:14;;;;;;;4.25;2.42;;;8.10;99.90;;;;;;5070561;28;20052;-77
2023/12/31 03:43:40;;;;;;;4.35;2.58;;;8.20;99.90;;;;;;5070399;28;20411;-78
2023/12/31 03:46:05;;;;;;;4.28;2.45;;;8.20;99.90;;;;;;5069794;28;20045;-78
2023/12/31 03:48:31;;;;;;;5.18;2.40;;;8.20;99.90;;;;;;5053813;28;20141;-78
2023/12/31 03:50:57;;;;;;;3.80;2.50;;;8.10;99.90;;;;;;5070517;28;20407;-78
2023/12/31 03:53:23;;;;;;;4.78;2.45;;;8.10;99.90;;;;;;5071897;28;20400;-78
2023/12/31 03:55:49;;;;;;;3.38;2.10;;;8.10;99.90;;;;;;5070909;28;20052;-77
2023/12/31 03:58:14;;;;;;;5.55;2.35;;;8.00;99.90;;;;;;5070277;28;20188;-79
2023/12/31 04:00:40;;;;;;;3.50;2.17;;;8.00;99.90;;;;;;5071744;28;20538;-78
2023/12/31 04:03:06;;;;;;;3.15;2.10;;;8.00;99.90;;;;;;5070121;28;20123;-77
2023/12/31 04:05:31;;;;;;;3.47;1.98;;;8.00;99.90;;;;;;5070517;28;20098;-77
2023/12/31 04:07:57;;;;;;;3.65;2.30;;;7.90;99.90;;;;;;5070362;28;20040;-78
2023/12/31 04:10:23;;;;;;;4.15;2.17;;;8.00;99.90;;;;;;5070279;28;20059;-78
2023/12/31 04:12:48;;;;;;;3.65;1.90;;;7.90;99.90;;;;;;5054018;28;20087;-77
2023/12/31 04:15:14;;;;;;;2.65;1.50;;;8.00;99.90;;;;;;5070267;28;20399;-77
2023/12/31 04:17:40;;;;;;;4.82;2.55;;;7.90;99.90;;;;;;5070640;28;20044;-77
2023/12/31 04:20:06;;;;;;;3.95;2.00;;;7.90;99.90;;;;;;5071735;28;20051;-78
2023/12/31 04:22:32;;;;;;;3.17;2.17;;;7.90;99.90;;;;;;5075175;28;20512;-77
2023/12/31 04:24:58;;;;;;;2.80;1.90;;;7.90;99.90;;;;;;5073957;28;20182;-78
2023/12/31 04:27:24;;;;;;;3.97;2.05;;;7.90;99.90;;;;;;5074008;28;20057;-77
2023/12/31 04:29:49;;;;;;;4.40;2.42;;;7.90;99.90;;;;;;5074026;28;20045;-77
2023/12/31 04:32:15;;;;;;;3.33;2.10;;;7.90;99.90;;;;;;5073075;28;20141;-77
2023/12/31 04:34:41;;;;;;;4.50;2.30;;;7.90;99.90;;;;;;5057446;28;20037;-76
2023/12/31 04:37:06;;;;;;;4.57;2.15;;;7.90;99.90;;;;;;5073452;28;20076;-77
2023/12/31 04:39:32;;;;;;;3.20;2.20;;;7.80;99.90;;;;;;5057208;28;20479;-78
2023/12/31 04:41:58;;;;;;;2.90;1.60;;;7.80;99.90;;;;;;5074754;28;20045;-77
2023/12/31 04:44:23;;;;;;;4.75;2.17;;;7.80;99.90;;;;;;5056719;28;20621;-78
2023/12/31 04:46:49;;;;;;;4.88;2.00;;;7.80;99.90;;;;;;5073316;28;20059;-77
2023/12/31 04:49:15;;;;;;;4.22;2.33;;;7.80;99.90;;;;;;5072828;28;20063;-78
2023/12/31 04:51:42;;;;;;;4.50;2.25;;;7.80;99.90;;;;;;5073246;28;20101;-77
2023/12/31 04:54:08;;;;;;;3.90;2.00;;;7.70;99.90;;;;;;5073268;28;20384;-78
2023/12/31 04:56:34;;;;;;;2.50;1.85;;;7.70;99.90;;;;;;5074763;28;20055;-77
2023/12/31 04:59:00;;;;;;;3.85;2.58;;;7.80;99.90;;;;;;5073562;28;20387;-77
2023/12/31 05:01:31;;;;;;;4.72;2.33;;;7.80;99.90;;;;;;5056488;28;20396;-78
2023/12/31 05:03:58;;;;;;;4.68;2.28;;;7.80;99.90;;;;;;5057136;28;20110;-77
2023/12/31 05:06:24;;;;;;;2.50;1.83;;;7.80;99.90;;;;;;5072931;28;20052;-77
2023/12/31 05:08:50;;;;;;;3.78;2.15;;;7.80;99.90;;;;;;5073408;28;20534;-77
2023/12/31 05:11:16;;;;;;;3.75;2.40;;;7.80;99.90;;;;;;5073992;28;20045;-77
2023/12/31 05:13:43;;;;;;;6.53;1.92;;;7.80;99.90;;;;;;5073030;28;20395;-77
2023/12/31 05:16:13;;;;;;;5.22;2.58;;;7.70;99.90;;;;;;5072766;28;20048;-78
2023/12/31 05:18:40;;;;;;;3.30;2.15;;;7.80;99.90;;;;;;5073269;28;20474;-77
2023/12/31 05:21:06;;;;;;;3.60;2.45;;;7.80;99.90;;;;;;5056382;28;20045;-78
2023/12/31 05:23:31;;;;;;;3.72;2.63;;;7.80;99.90;;;;;;5072381;28;20043;-78
2023/12/31 05:25:57;;;;;;;7.22;2.70;;;7.80;99.90;;;;;;5074001;28;20048;-77
2023/12/31 05:28:23;;;;;;;5.90;2.95;;;7.80;99.90;;;;;;5072503;28;20143;-77
2023/12/31 05:30:49;;;;;;;3.55;2.28;;;7.80;99.90;;;;;;5072444;28;20400;-78
2023/12/31 05:33:15;;;;;;;5.00;2.70;;;7.80;99.90;;;;;;5072328;28;20047;-78
2023/12/31 05:35:40;;;;;;;7.97;2.50;;;7.80;99.90;;;;;;5072380;28;20633;-78
2023/12/31 05:38:06;;;;;;;2.67;1.80;;;7.80;99.90;;;;;;5073890;28;20140;-77
2023/12/31 05:40:32;;;;;;;4.03;2.33;;;7.80;99.90;;;;;;5055717;28;20048;-77
2023/12/31 05:42:57;;;;;;;3.63;2.40;;;7.80;99.90;;;;;;5056027;28;20462;-78
2023/12/31 05:45:23;;;;;;;4.32;2.05;;;7.90;99.90;;;;;;5071731;28;20052;-77
2023/12/31 05:47:49;;;;;;;4.43;2.75;;;7.80;99.90;;;;;;5072664;28;20044;-77
2023/12/31 05:50:15;;;;;;;4.97;2.33;;;7.80;99.90;;;;;;5071527;28;20480;-78
2023/12/31 05:52:41;;;;;;;4.88;2.30;;;7.80;99.90;;;;;;5072510;28;20456;-76
2023/12/31 05:55:07;;;;;;;5.20;2.70;;;7.90;99.90;;;;;;5072399;28;20059;-77
2023/12/31 05:57:33;;;;;;;3.72;2.40;;;7.80;99.90;;;;;;5072138;28;20421;-77
2023/12/31 06:00:05;;;;;;;3.28;2.40;;;7.90;99.90;;;;;;5073566;28;20088;-77
2023/12/31 06:02:31;;;;;;;4.68;2.75;;;7.80;99.90;;;;;;5072761;28;20070;-77
2023/12/31 06:04:57;;;;;;;6.40;2.88;;;7.90;99.90;;;;;;5055654;28;20049;-78
2023/12/31 06:07:23;;;;;;;5.30;3.10;;;7.80;99.90;;;;;;5055278;28;20109;-77
2023/12/31 06:09:48;;;;;;;5.28;2.40;;;7.80;99.90;;;;;;5073328;28;20132;-77
2023/12/31 06:12:14;;;;;;;4.65;2.72;;;7.90;99.90;;;;;;5071951;28;20052;-78
2023/12/31 06:14:40;;;;;;;3.95;1.95;;;7.80;99.90;;;;;;5055289;28;20055;-77
2023/12/31 06:17:05;;;;;;;3.92;2.65;;;7.90;99.90;;;;;;5072986;28;20056;-77
2023/12/31 06:19:31;;;;;;;4.03;2.88;;;7.90;99.90;;;;;;5071722;28;20483;-77
2023/12/31 06:21:57;;;;;;;3.83;2.47;;;7.90;99.90;;;;;;5055372;28;20043;-76
2023/12/31 06:24:22;;;;;;;4.18;2.63;;;7.90;99.90;;;;;;5054896;28;20434;-76
2023/12/31 06:26:48;;;;;;;5.00;2.20;;;7.80;99.90;;;;;;5071777;28;20383;-76
2023/12/31 06:29:14;;;;;;;3.90;2.65;;;7.90;99.90;;;;;;5071696;28;20087;-76
2023/12/31 06:31:39;;;;;;;5.53;2.88;;;7.90;99.90;;;;;;5071406;28;20048;-76
2023/12/31 06:34:05;;;;;;;4.35;2.58;;;7.90;99.90;;;;;;5071608;28;20055;-76
2023/12/31 06:36:31;;;;;;;5.18;2.95;;;8.00;99.90;;;;;;5071173;28;20044;-79
2023/12/31 06:38:56;;;;;;;4.00;2.00;;;8.00;99.90;;;;;;5072336;28;20052;-76
2023/12/31 06:41:22;;;;;;;4.13;2.50;;;7.90;99.90;;;;;;5071952;28;20380;-76
2023/12/31 06:43:48;;;;;;;5.35;2.67;;;8.00;99.90;;;;;;5070577;28;20147;-77
2023/12/31 06:46:14;;;;;;;5.82;3.15;;;8.00;99.90;;;;;;5071417;28;20135;-77
2023/12/31 06:48:40;;;;;;;4.93;2.35;;;8.00;99.90;;;;;;5070916;28;20585;-77
2023/12/31 06:51:06;;;;;;;5.43;2.42;;;8.00;99.90;;;;;;5071277;28;20048;-76
2023/12/31 06:53:34;;;;;;;3.15;2.28;;;8.00;99.90;;;;;;5071023;28;20376;-77
2023/12/31 06:56:08;;;;;;;2.78;1.85;;;8.10;99.90;;;;;;5054749;28;20045;-77
2023/12/31 06:58:35;;;;;;;5.20;2.70;;;8.00;99.90;;;;;;5054190;28;20044;-77
2023/12/31 07:01:02;;;;;;;4.03;2.30;;;8.00;99.90;;;;;;5071636;28;20439;-76
2023/12/31 07:03:28;;;;;;;4.57;2.85;;;8.00;99.90;;;;;;5070366;28;20055;-77
2023/12/31 07:05:54;;;;;;;5.47;2.35;;;8.10;99.90;;;;;;5071034;28;20052;-77
2023/12/31 07:08:19;;;;;;;3.78;2.15;;;8.00;99.90;;;;;;5072085;28;20045;-77
2023/12/31 07:10:45;;;;;;;4.05;2.63;;;8.00;99.90;;;;;;5054189;28;20071;-76
2023/12/31 07:13:11;;;;;;;5.47;2.40;;;8.10;99.90;;;;;;5071291;28;20052;-76
2023/12/31 07:15:37;;;;;;;3.95;2.22;;;8.10;99.90;;;;;;5071671;28;20498;-77
2023/12/31 07:18:03;;;;;;;4.85;2.20;;;8.10;99.90;;;;;;5070923;28;20056;-77
2023/12/31 07:20:29;;;;;;;5.25;2.47;;;8.10;99.90;;;;;;5054235;28;20127;-76
2023/12/31 07:22:55;;;;;;;3.65;2.25;;;8.10;99.90;;;;;;5070901;28;20416;-77
2023/12/31 07:25:21;;;;;;;4.85;2.38;;;8.10;99.90;;;;;;5070919;28;20048;-77
2023/12/31 07:27:47;;;;;;;4.55;2.40;;;8.10;99.90;;;;;;5070708;28;20049;-77
2023/12/31 07:30:13;;;;;;;3.42;2.30;;;8.10;99.90;;;;;;5070877;28;20129;-77
2023/12/31 07:32:39;;;;;;;4.45;2.65;;;8.10;99.90;;;;;;5070544;28;20048;-77
2023/12/31 07:35:05;;;;;;;4.30;2.42;;;8.10;99.90;;;;;;5071905;28;20506;-76
2023/12/31 07:37:32;;;;;;;4.75;2.50;;;8.20;99.90;;;;;;5070505;28;20044;-77
2023/12/31 07:39:57;;;;;;;3.75;2.17;;;8.10;99.90;;;;;;5070918;28;20139;-77
2023/12/31 07:42:24;;;;;;;3.55;2.13;;;8.10;99.90;;;;;;5053771;28;20472;-77
2023/12/31 07:44:50;;;;;;;4.68;2.83;;;8.10;99.90;;;;;;5037381;28;20047;-77
2023/12/31 07:47:16;;;;;;;2.83;1.88;;;8.10;99.90;;;;;;5070803;28;20047;-77
2023/12/31 07:49:41;;;;;;;3.90;2.30;;;8.20;99.90;;;;;;5053275;28;20406;-76
2023/12/31 07:52:07;;;;;;;3.25;2.00;;;8.20;99.90;;;;;;5054188;28;20056;-77
2023/12/31 07:54:33;;;;;;;4.43;2.38;;;8.30;99.90;;;;;;5073639;28;20045;-77
2023/12/31 07:56:59;;;;;;;4.20;2.78;;;8.30;99.90;;;;;;5074690;28;20169;-77
2023/12/31 07:59:26;;;;;;;6.85;2.45;;;8.30;99.90;;;;;;5074753;28;20040;-77
2023/12/31 08:01:52;;;;;;;2.78;1.77;;;8.30;99.90;;;;;;5075022;28;20181;-77
2023/12/31 08:04:17;;;;;;;4.05;2.20;;;8.30;99.90;;;;;;5074511;28;20110;-77
2023/12/31 08:06:43;;;;;;;4.10;2.45;;;8.40;99.90;;;;;;5074014;28;20048;-76
2023/12/31 08:09:11;;;;;;;4.32;2.58;;;8.40;99.90;;;;;;5074486;28;20127;-76
2023/12/31 08:11:37;;;;;;;5.90;4.03;;;8.40;99.90;;;;;;5073811;28;20056;-77
2023/12/31 08:14:03;;;;;;;5.10;3.95;;;8.50;99.90;;;;;;5074308;28;20053;-77
2023/12/31 08:16:29;;;;;;;7.25;2.50;;;8.50;99.90;;;;;;5074921;28;20506;-77
2023/12/31 08:18:54;;;;;;;4.35;2.58;;;8.50;99.90;;;;;;5073914;28;20059;-77
2023/12/31 08:21:20;;;;;;;3.35;2.45;;;8.50;99.90;;;;;;5075261;28;20351;-77
2023/12/31 08:23:46;;;;;;;4.38;2.35;;;8.60;99.90;;;;;;5073306;28;20041;-77
2023/12/31 08:26:13;;;;;;;5.38;2.60;;;8.60;99.90;;;;;;5074036;28;20048;-77
2023/12/31 08:28:39;;;;;;;3.95;2.15;;;8.50;99.90;;;;;;5073695;28;20430;-77
2023/12/31 08:31:05;;;;;;;5.15;2.40;;;8.50;99.90;;;;;;5073929;28;20112;-76
2023/12/31 08:33:30;;;;;;;4.70;3.05;;;8.50;99.90;;;;;;5075011;28;20475;-77
2023/12/31 08:35:56;;;;;;;4.30;2.30;;;8.50;99.90;;;;;;5073421;28;20582;-77
2023/12/31 08:38:22;;;;;;;4.68;2.70;;;8.60;99.90;;;;;;5073774;28;20048;-77
2023/12/31 08:40:48;;;;;;;4.72;2.80;;;8.50;99.90;;;;;;5073318;28;20056;-77
2023/12/31 08:43:16;;;;;;;6.53;4.50;;;8.50;99.90;;;;;;5073564;28;20102;-77
2023/12/31 08:45:43;;;;;;;4.68;2.97;;;8.50;99.90;;;;;;5073067;28;20053;-77
2023/12/31 08:48:10;;;;;;;5.63;3.03;;;8.50;99.90;;;;;;5073817;28;20048;-77
2023/12/31 08:50:36;;;;;;;6.80;3.22;;;8.50;99.90;;;;;;5056500;28;20052;-76
2023/12/31 08:53:02;;;;;;;3.90;2.40;;;8.50;99.90;;;;;;5073130;28;20060;-77
2023/12/31 08:55:28;;;;;;;4.25;2.72;;;8.50;99.90;;;;;;5056491;28;20063;-77
2023/12/31 08:57:53;;;;;;;2.42;1.88;;;8.50;99.90;;;;;;5074314;28;20056;-77
2023/12/31 09:00:20;;;;;;;3.90;2.33;;;8.50;99.90;;;;;;5074466;28;20162;-77
2023/12/31 09:02:46;;;;;;;4.00;2.55;;;8.50;99.90;;;;;;5072829;28;20040;-76
2023/12/31 09:05:12;;;;;;;3.15;2.00;;;8.50;99.90;;;;;;5072484;28;20059;-76
2023/12/31 09:07:40;;;;;;;4.10;2.60;;;8.50;99.90;;;;;;5074563;28;20045;-77
2023/12/31 09:10:07;;;;;;;2.90;2.00;;;8.50;99.90;;;;;;5072907;28;20052;-76
2023/12/31 09:12:32;;;;;;;4.75;2.67;;;8.60;99.90;;;;;;5074237;28;20124;-77
2023/12/31 09:14:58;;;;;;;3.50;2.40;;;8.60;99.90;;;;;;5073951;28;20550;-77
2023/12/31 09:17:25;;;;;;;4.82;2.60;;;8.60;99.90;;;;;;5073252;28;20052;-77
2023/12/31 09:19:53;;;;;;;24.20;3.08;;;8.50;99.90;;;;;;5072729;28;20446;-77
2023/12/31 09:22:19;;;;;;;8.40;5.03;;;8.60;99.90;;;;;;5072709;28;20080;-76
2023/12/31 09:24:45;;;;;;;4.20;2.17;;;8.60;99.90;;;;;;5073642;28;20096;-79
2023/12/31 09:27:12;;;;;;;4.53;2.22;;;8.70;99.90;;;;;;5073121;28;20048;-81
2023/12/31 09:29:38;;;;;;;4.38;2.92;;;8.80;99.90;;;;;;5073870;28;20052;-77
2023/12/31 09:32:04;;;;;;;4.78;2.60;;;8.80;99.90;;;;;;5072335;28;20044;-77
2023/12/31 09:34:30;;;;;;;3.95;2.40;;;8.90;99.90;;;;;;5072449;28;20136;-77
2023/12/31 09:36:55;;;;;;;4.70;2.20;;;8.90;99.90;;;;;;5055235;28;20131;-78
2023/12/31 09:39:21;;;;;;;3.97;2.30;;;9.00;99.90;;;;;;5056127;28;20044;-77
2023/12/31 09:41:52;;;;;;;5.20;2.28;;;9.00;99.90;;;;;;5072106;28;20451;-82
2023/12/31 09:44:19;;;;;;;4.45;3.33;;;9.00;99.90;;;;;;5073700;28;20040;-78
2023/12/31 09:47:06;;;;;;;4.60;2.63;;;9.10;99.90;;;;;;5072364;28;20107;-79
2023/12/31 09:49:34;;;;;;;5.68;2.63;;;9.00;99.90;;;;;;5055517;28;20049;-77
2023/12/31 09:52:08;;;;;;;2.90;2.00;;;9.00;99.90;;;;;;5072072;28;20132;-79
2023/12/31 09:54:39;;;;;;;3.13;1.92;;;9.00;99.90;;;;;;5072841;28;20151;-78
2023/12/31 09:57:06;;;;;;;4.90;2.60;;;9.00;99.90;;;;;;5071685;28;20098;-76
2023/12/31 09:59:31;;;;;;;3.50;1.90;;;9.00;99.90;;;;;;5072173;28;20452;-77
2023/12/31 10:02:04;;;;;;;5.47;2.70;;;9.10;99.90;;;;;;5072696;28;20120;-78
2023/12/31 10:04:31;;;;;;;4.30;2.67;;;9.10;99.90;;;;;;5055338;28;20049;-78
2023/12/31 10:06:58;;;;;;;5.57;2.92;;;9.10;99.90;;;;;;5071767;28;20074;-79
2023/12/31 10:09:28;;;;;;;4.82;2.95;;;9.00;99.90;;;;;;5072160;28;20437;-78
2023/12/31 10:11:54;;;;;;;5.70;3.00;;;9.00;99.90;;;;;;5071192;28;20491;-77
2023/12/31 10:14:21;;;;;;;5.13;3.20;;;9.10;99.90;;;;;;5072008;28;20060;-80
2023/12/31 10:16:47;;;;;;;9.07;5.53;;;9.10;99.90;;;;;;5071686;28;20056;-76
2023/12/31 10:19:14;;;;;;;6.28;2.95;;;9.10;99.90;;;;;;5071270;28;20365;-75
2023/12/31 10:21:41;;;;;;;4.82;3.05;;;9.10;99.90;;;;;;5071670;28;20048;-78
2023/12/31 10:24:07;;;;;;;9.10;3.47;;;9.10;99.90;;;;;;5070710;28;20399;-76
2023/12/31 10:26:33;;;;;;;5.22;3.28;;;9.10;99.90;;;;;;5072353;28;20040;-77
2023/12/31 10:28:59;;;;;;;5.35;2.90;;;9.10;99.90;;;;;;5071243;28;20052;-77
2023/12/31 10:31:25;;;;;;;4.45;2.65;;;9.10;99.90;;;;;;5054766;28;20066;-77
2023/12/31 10:33:51;;;;;;;4.00;2.58;;;9.10;99.90;;;;;;5071390;28;20049;-77
2023/12/31 10:36:23;;;;;;;6.88;4.93;;;9.20;99.90;;;;;;5053953;28;20072;-77
2023/12/31 10:38:51;;;;;;;4.63;3.13;;;9.20;99.90;;;;;;5071149;28;20044;-77
2023/12/31 10:41:24;;;;;;;5.70;2.63;;;9.20;99.90;;;;;;5072084;28;20135;-77
2023/12/31 10:43:54;;;;;;;6.18;3.15;;;9.20;99.90;;;;;;5070828;28;20052;-76
2023/12/31 10:46:21;;;;;;;6.50;3.58;;;9.20;99.90;;;;;;5072405;28;20049;-78
2023/12/31 10:49:02;;;;;;;6.05;3.20;;;9.30;99.90;;;;;;5037589;28;20078;-77
2023/12/31 10:51:28;;;;;;;4.80;2.85;;;9.30;99.90;;;;;;5070741;28;20060;-77
2023/12/31 10:53:57;;;;;;;5.35;3.30;;;9.30;99.90;;;;;;5071244;28;20045;-77
2023/12/31 10:56:27;;;;;;;4.82;2.97;;;9.30;99.90;;;;;;5038062;28;20052;-77
2023/12/31 10:58:54;;;;;;;4.50;3.35;;;9.40;99.90;;;;;;5071352;28;20048;-77
2023/12/31 11:01:24;;;;;;;6.78;3.13;;;9.40;99.90;;;;;;5070603;28;20056;-78
2023/12/31 11:03:52;;;;;;;4.57;2.88;;;9.40;99.90;;;;;;5053910;28;20480;-78
2023/12/31 11:06:18;;;;;;;5.57;2.47;;;9.50;99.90;;;;;;5070676;28;20178;-77
2023/12/31 11:08:45;;;;;;;4.70;2.67;;;9.50;99.90;;;;;;5072099;28;20052;-76
2023/12/31 11:11:11;;;;;;;4.90;3.17;;;9.60;99.90;;;;;;5070265;28;20484;-77
2023/12/31 11:13:40;;;;;;;5.30;3.35;;;9.70;99.90;;;;;;5070845;28;20056;-76
2023/12/31 11:16:18;;;;;;;7.10;4.50;;;9.80;99.90;;;;;;5071647;28;20086;-75
2023/12/31 11:19:34;;;;;;;7.43;5.00;;;9.90;99.90;;;;;;5072069;28;20057;-75
2023/12/31 11:22:17;;;;;;;4.38;2.67;;;9.90;99.90;;;;;;5070613;28;20052;-78
2023/12/31 11:24:43;;;;;;;5.03;3.08;;;10.00;99.90;;;;;;5087634;28;20052;-75
2023/12/31 11:27:17;;;;;;;5.93;3.00;;;9.90;99.90;;;;;;5053640;28;20040;-75
2023/12/31 11:29:49;;;;;;;4.93;2.90;;;9.90;99.90;;;;;;5076305;28;20048;-75
2023/12/31 11:32:17;;;;;;;5.15;3.40;;;9.80;99.90;;;;;;5078312;28;20514;-76
2023/12/31 11:34:42;;;;;;;7.53;3.90;;;9.70;99.90;;;;;;5078457;28;20114;-75
2023/12/31 11:37:08;;;;;;;8.20;4.40;;;9.70;99.90;;;;;;5076594;28;20040;-76
2023/12/31 11:39:34;;;;;;;5.57;3.47;;;9.60;99.90;;;;;;5077390;28;20058;-75
2023/12/31 11:42:11;;;;;;;4.40;3.13;;;9.60;99.90;;;;;;5077122;28;20131;-75
2023/12/31 11:44:41;;;;;;;4.68;3.05;;;9.60;99.90;;;;;;5078031;28;20450;-76
2023/12/31 11:47:14;;;;;;;5.55;2.75;;;9.50;99.90;;;;;;5076573;28;20503;-78
2023/12/31 11:49:47;;;;;;;4.07;2.78;;;9.50;99.90;;;;;;5077687;28;20392;-78
2023/12/31 11:52:12;;;;;;;2.05;1.60;;;9.40;99.90;;;;;;5060237;28;20135;-78
2023/12/31 11:54:40;;;;;;;4.28;2.05;;;9.30;99.90;;;;;;5060536;28;20128;-77
2023/12/31 11:57:08;;;;;;;3.95;2.00;;;9.20;99.90;;;;;;5077114;28;20048;-78
2023/12/31 11:59:38;;;;;;;2.15;1.67;;;9.10;99.90;;;;;;5076933;28;20059;-77
2023/12/31 12:02:06;;;;;;;3.10;1.63;;;9.00;99.90;;;;;;5078317;28;20053;-77
2023/12/31 12:04:33;;;;;;;1.20;1.10;;;8.90;99.90;;;;;;5077956;28;20045;-78
2023/12/31 12:06:59;;;;;;;1.60;1.10;;;8.90;99.90;;;;;;5078495;28;20036;-78
2023/12/31 12:09:32;;;;;;;2.03;1.15;;;8.80;99.90;;;;;;5078001;28;20074;-77
2023/12/31 12:12:03;;;;;;;1.50;1.17;;;8.70;99.90;;;;;;5078382;28;20106;-79
2023/12/31 12:14:29;;;;;;;3.33;1.60;;;8.70;99.90;;;;;;5076926;28;20207;-78
2023/12/31 12:16:56;;;;;;;4.90;3.40;;;8.60;99.90;;;;;;5077455;28;20056;-78
2023/12/31 12:19:23;;;;;;;2.80;1.70;;;8.60;99.90;;;;;;5077966;28;20051;-77
2023/12/31 12:21:50;;;;;;;3.70;1.52;;;8.60;99.90;;;;;;5077804;28;20076;-77
2023/12/31 12:24:17;;;;;;;3.30;1.98;;;8.60;99.90;;;;;;5077550;28;20048;-78
2023/12/31 12:26:44;;;;;;;2.88;1.30;;;8.60;99.90;;;;;;5079464;28;20044;-76
2023/12/31 12:29:10;;;;;;;15.52;13.90;;;8.60;99.90;;;;;;5078175;28;20060;-77
2023/12/31 12:31:36;;;;;;;14.00;12.60;;;8.50;99.90;;;;;;5076520;28;20049;-77
2023/12/31 12:34:07;;;;;;;8.38;6.00;;;8.60;99.90;;;;;;5077064;28;20052;-77
2023/12/31 12:36:33;;;;;;;17.77;14.60;;;8.60;99.90;;;;;;5077782;28;20051;-78
2023/12/31 12:39:05;;;;;;;10.52;7.55;;;8.60;99.90;;;;;;5078423;28;20515;-79
2023/12/31 12:41:32;;;;;;;9.50;7.07;;;8.70;99.90;;;;;;5072390;28;20048;-80
2023/12/31 12:43:59;;;;;;;7.65;4.90;;;8.70;99.90;;;;;;5056918;28;20048;-79
2023/12/31 12:46:30;;;;;;;3.63;2.17;;;8.80;99.90;;;;;;5073008;28;20048;-79
2023/12/31 12:48:56;;;;;;;2.30;1.55;;;8.80;99.90;;;;;;5057165;28;20060;-78
2023/12/31 12:51:23;;;;;;;3.42;2.05;;;8.90;99.90;;;;;;5072979;28;20575;-82
2023/12/31 12:53:50;;;;;;;3.10;1.63;;;9.00;99.90;;;;;;5073553;28;20075;-80
2023/12/31 12:56:16;;;;;;;2.83;1.70;;;9.00;99.90;;;;;;5056691;28;20053;-80